Columbus, Ohio
Traffic Map
Current Weather Conditions
Columbus, Ohio
Overcast Light Snow
Overcast
-1°
Feels Like: -7°
Wind Chill: -7° Ceiling: 900
Heat Index: -1° Visibility: 3mi
Dew Point: -1° Wind: 13mph
Humidity: 100% Direction: 290° (WNW)
Pressure: 29.61in Gusts: 0mph
Raw Report DataKCMH 090551Z 29011KT 3SM -SN BR OVC009 M01/M01 A2961 RMK AO2 SLP034 P0000 60013 4/001 T10111011 10011 21011 55004 $
Traffic Incident Summary
Active as of:
Severity:
Category:
InformationThere was an issue retrieving the traffic information for this location. Please try a different location or try again shortly.
Advertisements
Track Severe Weather on mobile